sensor_id;sensor_type;location;lat;lon;timestamp;temperature;humidity
1594;DHT22;790;47.000;16.084;2023-04-30T00:02:48;13.50;99.90
1594;DHT22;790;47.000;16.084;2023-04-30T00:08:58;13.40;99.90
1594;DHT22;790;47.000;16.084;2023-04-30T00:15:07;13.40;99.90
1594;DHT22;790;47.000;16.084;2023-04-30T00:25:41;13.50;99.90
1594;DHT22;790;47.000;16.084;2023-04-30T00:32:01;13.60;99.90
1594;DHT22;790;47.000;16.084;2023-04-30T00:38:23;13.50;99.90
1594;DHT22;790;47.000;16.084;2023-04-30T00:44:53;13.60;99.90
1594;DHT22;790;47.000;16.084;2023-04-30T00:51:15;13.60;99.90
1594;DHT22;790;47.000;16.084;2023-04-30T00:57:37;13.60;99.90
1594;DHT22;790;47.000;16.084;2023-04-30T01:04:09;13.60;99.90
1594;DHT22;790;47.000;16.084;2023-04-30T01:10:40;13.60;99.90
1594;DHT22;790;47.000;16.084;2023-04-30T01:17:19;13.60;99.90
1594;DHT22;790;47.000;16.084;2023-04-30T01:28:47;13.60;99.90
1594;DHT22;790;47.000;16.084;2023-04-30T01:35:10;13.80;99.90
1594;DHT22;790;47.000;16.084;2023-04-30T01:41:25;13.90;99.90
1594;DHT22;790;47.000;16.084;2023-04-30T01:48:00;13.90;99.90
1594;DHT22;790;47.000;16.084;2023-04-30T01:54:16;13.90;99.90
1594;DHT22;790;47.000;16.084;2023-04-30T02:00:27;13.90;99.90
1594;DHT22;790;47.000;16.084;2023-04-30T02:06:59;13.80;99.90
1594;DHT22;790;47.000;16.084;2023-04-30T02:13:09;13.70;99.90
1594;DHT22;790;47.000;16.084;2023-04-30T02:19:17;13.80;99.90
1594;DHT22;790;47.000;16.084;2023-04-30T02:30:41;13.90;99.90
1594;DHT22;790;47.000;16.084;2023-04-30T02:37:06;14.00;99.90
1594;DHT22;790;47.000;16.084;2023-04-30T02:43:31;14.00;99.90
1594;DHT22;790;47.000;16.084;2023-04-30T02:49:55;13.90;99.90
1594;DHT22;790;47.000;16.084;2023-04-30T02:56:16;13.90;99.90
1594;DHT22;790;47.000;16.084;2023-04-30T03:02:37;13.80;99.90
1594;DHT22;790;47.000;16.084;2023-04-30T03:09:00;13.80;99.90
1594;DHT22;790;47.000;16.084;2023-04-30T03:15:21;13.70;99.90
1594;DHT22;790;47.000;16.084;2023-04-30T03:21:42;13.70;99.90
1594;DHT22;790;47.000;16.084;2023-04-30T03:33:00;13.50;99.90
1594;DHT22;790;47.000;16.084;2023-04-30T03:39:08;13.50;99.90
1594;DHT22;790;47.000;16.084;2023-04-30T03:45:17;13.50;99.90
1594;DHT22;790;47.000;16.084;2023-04-30T03:51:40;13.50;99.90
1594;DHT22;790;47.000;16.084;2023-04-30T03:57:50;13.40;99.90
1594;DHT22;790;47.000;16.084;2023-04-30T04:03:58;13.30;99.90
1594;DHT22;790;47.000;16.084;2023-04-30T04:10:08;13.50;99.90
1594;DHT22;790;47.000;16.084;2023-04-30T04:16:16;13.60;99.90
1594;DHT22;790;47.000;16.084;2023-04-30T04:22:23;13.50;99.90
1594;DHT22;790;47.000;16.084;2023-04-30T04:32:58;13.30;99.90
1594;DHT22;790;47.000;16.084;2023-04-30T04:39:18;13.30;99.90
1594;DHT22;790;47.000;16.084;2023-04-30T04:45:40;13.50;99.90
1594;DHT22;790;47.000;16.084;2023-04-30T04:52:03;13.60;99.90
1594;DHT22;790;47.000;16.084;2023-04-30T04:58:24;13.50;99.90
1594;DHT22;790;47.000;16.084;2023-04-30T05:04:45;13.60;99.90
1594;DHT22;790;47.000;16.084;2023-04-30T05:11:10;13.50;99.90
1594;DHT22;790;47.000;16.084;2023-04-30T05:17:31;13.70;99.90
1594;DHT22;790;47.000;16.084;2023-04-30T05:23:52;13.80;99.90
1594;DHT22;790;47.000;16.084;2023-04-30T05:34:42;13.80;99.90
1594;DHT22;790;47.000;16.084;2023-04-30T05:40:50;13.80;99.90
1594;DHT22;790;47.000;16.084;2023-04-30T05:46:58;13.90;99.90
1594;DHT22;790;47.000;16.084;2023-04-30T05:53:07;13.90;99.90
1594;DHT22;790;47.000;16.084;2023-04-30T05:59:15;13.90;99.90
1594;DHT22;790;47.000;16.084;2023-04-30T06:05:24;13.90;99.90
1594;DHT22;790;47.000;16.084;2023-04-30T06:11:33;13.80;99.90
1594;DHT22;790;47.000;16.084;2023-04-30T06:17:42;13.70;99.90
1594;DHT22;790;47.000;16.084;2023-04-30T06:23:50;13.80;99.90
1594;DHT22;790;47.000;16.084;2023-04-30T06:34:14;13.80;99.90
1594;DHT22;790;47.000;16.084;2023-04-30T06:40:35;13.80;99.90
1594;DHT22;790;47.000;16.084;2023-04-30T06:46:56;13.90;99.90
1594;DHT22;790;47.000;16.084;2023-04-30T06:53:20;14.10;99.90
1594;DHT22;790;47.000;16.084;2023-04-30T06:59:42;14.30;99.90
1594;DHT22;790;47.000;16.084;2023-04-30T07:06:18;14.40;99.90
1594;DHT22;790;47.000;16.084;2023-04-30T07:12:41;14.50;99.90
1594;DHT22;790;47.000;16.084;2023-04-30T07:19:05;14.60;99.90
1594;DHT22;790;47.000;16.084;2023-04-30T07:25:41;14.70;99.90
1594;DHT22;790;47.000;16.084;2023-04-30T07:36:50;14.80;99.90
1594;DHT22;790;47.000;16.084;2023-04-30T07:43:00;15.00;99.90
1594;DHT22;790;47.000;16.084;2023-04-30T07:49:10;15.00;99.90
1594;DHT22;790;47.000;16.084;2023-04-30T07:55:23;15.30;99.90
1594;DHT22;790;47.000;16.084;2023-04-30T08:01:31;15.50;99.90
1594;DHT22;790;47.000;16.084;2023-04-30T08:07:39;15.60;99.90
1594;DHT22;790;47.000;16.084;2023-04-30T08:13:48;15.80;99.90
1594;DHT22;790;47.000;16.084;2023-04-30T08:19:56;16.10;99.90
1594;DHT22;790;47.000;16.084;2023-04-30T08:26:04;16.40;99.90
1594;DHT22;790;47.000;16.084;2023-04-30T08:36:41;16.50;99.90
1594;DHT22;790;47.000;16.084;2023-04-30T08:43:05;16.60;99.90
1594;DHT22;790;47.000;16.084;2023-04-30T08:49:30;16.90;99.90
1594;DHT22;790;47.000;16.084;2023-04-30T08:56:22;17.10;99.90
1594;DHT22;790;47.000;16.084;2023-04-30T09:02:45;17.10;99.90
1594;DHT22;790;47.000;16.084;2023-04-30T09:09:11;17.00;99.90
1594;DHT22;790;47.000;16.084;2023-04-30T09:15:50;17.10;99.90
1594;DHT22;790;47.000;16.084;2023-04-30T09:22:19;17.30;99.90
1594;DHT22;790;47.000;16.084;2023-04-30T09:28:53;17.10;99.90
1594;DHT22;790;47.000;16.084;2023-04-30T09:40:11;17.20;99.90
1594;DHT22;790;47.000;16.084;2023-04-30T09:46:21;17.50;99.90
1594;DHT22;790;47.000;16.084;2023-04-30T09:52:30;17.50;99.90
1594;DHT22;790;47.000;16.084;2023-04-30T09:58:43;17.30;99.90
1594;DHT22;790;47.000;16.084;2023-04-30T10:04:57;17.30;99.90
1594;DHT22;790;47.000;16.084;2023-04-30T10:11:07;17.10;99.90
1594;DHT22;790;47.000;16.084;2023-04-30T10:17:16;16.90;99.90
1594;DHT22;790;47.000;16.084;2023-04-30T10:23:25;17.00;99.90
1594;DHT22;790;47.000;16.084;2023-04-30T10:29:33;17.50;99.90
1594;DHT22;790;47.000;16.084;2023-04-30T10:40:08;17.90;99.90
1594;DHT22;790;47.000;16.084;2023-04-30T10:46:33;18.00;99.90
1594;DHT22;790;47.000;16.084;2023-04-30T10:53:01;18.10;99.90
1594;DHT22;790;47.000;16.084;2023-04-30T10:59:42;18.00;99.90
1594;DHT22;790;47.000;16.084;2023-04-30T11:06:11;17.90;99.90
1594;DHT22;790;47.000;16.084;2023-04-30T11:12:33;18.20;99.90
1594;DHT22;790;47.000;16.084;2023-04-30T11:19:09;18.50;99.90
1594;DHT22;790;47.000;16.084;2023-04-30T11:25:39;18.40;99.90
1594;DHT22;790;47.000;16.084;2023-04-30T11:32:00;18.70;99.90
1594;DHT22;790;47.000;16.084;2023-04-30T11:43:39;18.80;99.90
1594;DHT22;790;47.000;16.084;2023-04-30T11:49:56;18.60;99.90
1594;DHT22;790;47.000;16.084;2023-04-30T11:56:08;18.90;99.90
1594;DHT22;790;47.000;16.084;2023-04-30T12:02:17;19.00;99.90
1594;DHT22;790;47.000;16.084;2023-04-30T12:04:55;19.00;99.90
1594;DHT22;790;47.000;16.084;2023-04-30T12:07:23;19.10;99.90
1594;DHT22;790;47.000;16.084;2023-04-30T12:09:51;19.10;99.90
1594;DHT22;790;47.000;16.084;2023-04-30T12:12:26;19.20;99.90
1594;DHT22;790;47.000;16.084;2023-04-30T12:14:54;19.00;99.90
1594;DHT22;790;47.000;16.084;2023-04-30T12:17:30;19.00;99.00
1594;DHT22;790;47.000;16.084;2023-04-30T12:19:59;19.00;99.90
1594;DHT22;790;47.000;16.084;2023-04-30T12:22:27;19.00;99.90
1594;DHT22;790;47.000;16.084;2023-04-30T12:24:57;19.00;99.90
1594;DHT22;790;47.000;16.084;2023-04-30T12:27:26;18.80;99.90
1594;DHT22;790;47.000;16.084;2023-04-30T12:29:55;19.00;99.90
1594;DHT22;790;47.000;16.084;2023-04-30T12:32:31;19.10;99.90
1594;DHT22;790;47.000;16.084;2023-04-30T12:35:04;19.20;99.90
1594;DHT22;790;47.000;16.084;2023-04-30T12:37:33;19.30;99.90
1594;DHT22;790;47.000;16.084;2023-04-30T12:40:00;19.30;99.90
1594;DHT22;790;47.000;16.084;2023-04-30T12:42:31;19.40;99.90
1594;DHT22;790;47.000;16.084;2023-04-30T12:45:00;19.40;99.90
1594;DHT22;790;47.000;16.084;2023-04-30T12:47:28;19.30;99.50
1594;DHT22;790;47.000;16.084;2023-04-30T12:49:58;19.40;99.90
1594;DHT22;790;47.000;16.084;2023-04-30T12:52:26;19.20;99.90
1594;DHT22;790;47.000;16.084;2023-04-30T12:54:54;19.40;99.90
1594;DHT22;790;47.000;16.084;2023-04-30T12:57:21;19.10;99.00
1594;DHT22;790;47.000;16.084;2023-04-30T12:59:58;18.80;99.40
1594;DHT22;790;47.000;16.084;2023-04-30T13:02:28;18.70;99.90
1594;DHT22;790;47.000;16.084;2023-04-30T13:04:58;18.70;99.90
1594;DHT22;790;47.000;16.084;2023-04-30T13:07:49;18.80;99.90
1594;DHT22;790;47.000;16.084;2023-04-30T13:10:30;18.80;99.90
1594;DHT22;790;47.000;16.084;2023-04-30T13:12:57;18.90;99.90
1594;DHT22;790;47.000;16.084;2023-04-30T13:15:25;19.00;99.90
1594;DHT22;790;47.000;16.084;2023-04-30T13:17:53;18.80;99.70
1594;DHT22;790;47.000;16.084;2023-04-30T13:20:20;18.80;99.40
1594;DHT22;790;47.000;16.084;2023-04-30T13:23:08;18.90;99.90
1594;DHT22;790;47.000;16.084;2023-04-30T13:25:37;19.00;99.40
1594;DHT22;790;47.000;16.084;2023-04-30T13:28:07;19.00;98.00
1594;DHT22;790;47.000;16.084;2023-04-30T13:30:59;19.00;99.70
1594;DHT22;790;47.000;16.084;2023-04-30T13:33:34;19.00;98.40
1594;DHT22;790;47.000;16.084;2023-04-30T13:36:01;19.00;99.40
1594;DHT22;790;47.000;16.084;2023-04-30T13:38:30;19.00;98.70
1594;DHT22;790;47.000;16.084;2023-04-30T13:40:57;19.10;99.90
1594;DHT22;790;47.000;16.084;2023-04-30T13:43:25;19.10;97.40
1594;DHT22;790;47.000;16.084;2023-04-30T13:45:52;19.00;97.20
1594;DHT22;790;47.000;16.084;2023-04-30T13:48:19;19.00;98.10
1594;DHT22;790;47.000;16.084;2023-04-30T13:50:46;19.10;98.10
1594;DHT22;790;47.000;16.084;2023-04-30T13:53:13;19.10;97.50
1594;DHT22;790;47.000;16.084;2023-04-30T13:55:42;19.20;98.70
1594;DHT22;790;47.000;16.084;2023-04-30T13:58:09;19.50;97.10
1594;DHT22;790;47.000;16.084;2023-04-30T14:00:37;19.50;96.50
1594;DHT22;790;47.000;16.084;2023-04-30T14:03:04;19.40;96.70
1594;DHT22;790;47.000;16.084;2023-04-30T14:05:32;19.30;96.80
1594;DHT22;790;47.000;16.084;2023-04-30T14:07:59;19.40;97.40
1594;DHT22;790;47.000;16.084;2023-04-30T14:10:26;19.10;96.70
1594;DHT22;790;47.000;16.084;2023-04-30T14:12:55;19.00;96.90
1594;DHT22;790;47.000;16.084;2023-04-30T14:15:22;18.90;96.90
1594;DHT22;790;47.000;16.084;2023-04-30T14:17:49;19.10;97.30
1594;DHT22;790;47.000;16.084;2023-04-30T14:20:17;19.20;97.80
1594;DHT22;790;47.000;16.084;2023-04-30T14:22:44;19.30;97.20
1594;DHT22;790;47.000;16.084;2023-04-30T14:25:12;19.20;96.20
1594;DHT22;790;47.000;16.084;2023-04-30T14:27:39;19.20;96.00
1594;DHT22;790;47.000;16.084;2023-04-30T14:30:09;19.10;95.70
1594;DHT22;790;47.000;16.084;2023-04-30T14:32:37;19.00;95.10
1594;DHT22;790;47.000;16.084;2023-04-30T14:35:05;19.20;95.70
1594;DHT22;790;47.000;16.084;2023-04-30T14:37:32;19.20;96.60
1594;DHT22;790;47.000;16.084;2023-04-30T14:39:59;19.20;96.10
1594;DHT22;790;47.000;16.084;2023-04-30T14:42:26;19.00;95.00
1594;DHT22;790;47.000;16.084;2023-04-30T14:44:54;18.80;96.60
1594;DHT22;790;47.000;16.084;2023-04-30T14:47:22;18.90;96.70
1594;DHT22;790;47.000;16.084;2023-04-30T14:49:52;19.00;98.50
1594;DHT22;790;47.000;16.084;2023-04-30T14:52:19;19.20;97.70
1594;DHT22;790;47.000;16.084;2023-04-30T14:54:47;19.10;97.90
1594;DHT22;790;47.000;16.084;2023-04-30T14:57:14;19.10;97.30
1594;DHT22;790;47.000;16.084;2023-04-30T14:59:41;19.00;97.40
1594;DHT22;790;47.000;16.084;2023-04-30T15:02:08;19.00;97.70
1594;DHT22;790;47.000;16.084;2023-04-30T15:04:37;19.00;97.20
1594;DHT22;790;47.000;16.084;2023-04-30T15:07:04;19.10;97.50
1594;DHT22;790;47.000;16.084;2023-04-30T15:09:32;19.00;96.10
1594;DHT22;790;47.000;16.084;2023-04-30T15:11:59;18.80;96.90
1594;DHT22;790;47.000;16.084;2023-04-30T15:14:26;18.70;96.40
1594;DHT22;790;47.000;16.084;2023-04-30T15:16:54;18.70;97.50
1594;DHT22;790;47.000;16.084;2023-04-30T15:19:21;18.70;96.90
1594;DHT22;790;47.000;16.084;2023-04-30T15:21:49;18.70;96.70
1594;DHT22;790;47.000;16.084;2023-04-30T15:24:18;18.70;96.20
1594;DHT22;790;47.000;16.084;2023-04-30T15:26:45;18.70;98.20
1594;DHT22;790;47.000;16.084;2023-04-30T15:29:12;18.60;97.20
1594;DHT22;790;47.000;16.084;2023-04-30T15:31:39;18.70;98.40
1594;DHT22;790;47.000;16.084;2023-04-30T15:34:06;18.80;98.00
1594;DHT22;790;47.000;16.084;2023-04-30T15:36:33;18.90;96.60
1594;DHT22;790;47.000;16.084;2023-04-30T15:39:02;18.80;96.60
1594;DHT22;790;47.000;16.084;2023-04-30T15:41:30;18.70;97.00
1594;DHT22;790;47.000;16.084;2023-04-30T15:43:57;18.80;96.70
1594;DHT22;790;47.000;16.084;2023-04-30T15:46:24;18.70;96.90
1594;DHT22;790;47.000;16.084;2023-04-30T15:48:52;18.90;97.80
1594;DHT22;790;47.000;16.084;2023-04-30T15:51:20;18.90;96.30
1594;DHT22;790;47.000;16.084;2023-04-30T15:53:47;19.00;96.50
1594;DHT22;790;47.000;16.084;2023-04-30T15:56:18;19.00;97.00
1594;DHT22;790;47.000;16.084;2023-04-30T15:58:50;18.80;96.80
1594;DHT22;790;47.000;16.084;2023-04-30T16:01:18;18.80;97.00
1594;DHT22;790;47.000;16.084;2023-04-30T16:03:47;18.90;96.20
1594;DHT22;790;47.000;16.084;2023-04-30T16:06:15;18.90;97.70
1594;DHT22;790;47.000;16.084;2023-04-30T16:08:43;19.00;97.60
1594;DHT22;790;47.000;16.084;2023-04-30T16:11:11;19.00;97.90
1594;DHT22;790;47.000;16.084;2023-04-30T16:13:40;18.90;96.50
1594;DHT22;790;47.000;16.084;2023-04-30T16:16:08;18.90;96.50
1594;DHT22;790;47.000;16.084;2023-04-30T16:18:35;19.00;97.60
1594;DHT22;790;47.000;16.084;2023-04-30T16:21:03;19.00;96.20
1594;DHT22;790;47.000;16.084;2023-04-30T16:23:44;18.80;96.20
1594;DHT22;790;47.000;16.084;2023-04-30T16:26:15;18.60;96.10
1594;DHT22;790;47.000;16.084;2023-04-30T16:29:00;18.70;95.90
1594;DHT22;790;47.000;16.084;2023-04-30T16:31:27;18.60;96.60
1594;DHT22;790;47.000;16.084;2023-04-30T16:33:55;18.60;95.90
1594;DHT22;790;47.000;16.084;2023-04-30T16:36:24;18.60;97.10
1594;DHT22;790;47.000;16.084;2023-04-30T16:38:54;18.50;97.30
1594;DHT22;790;47.000;16.084;2023-04-30T16:41:22;18.50;96.50
1594;DHT22;790;47.000;16.084;2023-04-30T16:43:50;18.40;95.90
1594;DHT22;790;47.000;16.084;2023-04-30T16:46:33;18.30;96.80
1594;DHT22;790;47.000;16.084;2023-04-30T16:49:05;18.30;97.70
1594;DHT22;790;47.000;16.084;2023-04-30T16:51:36;18.30;97.50
1594;DHT22;790;47.000;16.084;2023-04-30T16:54:05;18.30;97.50
1594;DHT22;790;47.000;16.084;2023-04-30T16:56:32;18.30;97.70
1594;DHT22;790;47.000;16.084;2023-04-30T16:58:59;18.10;97.20
1594;DHT22;790;47.000;16.084;2023-04-30T17:01:45;18.10;97.40
1594;DHT22;790;47.000;16.084;2023-04-30T17:04:16;18.00;97.10
1594;DHT22;790;47.000;16.084;2023-04-30T17:06:45;17.80;96.40
1594;DHT22;790;47.000;16.084;2023-04-30T17:09:19;17.60;97.60
1594;DHT22;790;47.000;16.084;2023-04-30T17:11:51;17.50;98.50
1594;DHT22;790;47.000;16.084;2023-04-30T17:14:32;17.30;97.80
1594;DHT22;790;47.000;16.084;2023-04-30T17:17:05;17.30;98.00
1594;DHT22;790;47.000;16.084;2023-04-30T17:22:22;17.10;98.20
1594;DHT22;790;47.000;16.084;2023-04-30T17:24:50;17.10;98.20
1594;DHT22;790;47.000;16.084;2023-04-30T17:27:35;17.10;98.70
1594;DHT22;790;47.000;16.084;2023-04-30T17:30:11;17.10;98.40
1594;DHT22;790;47.000;16.084;2023-04-30T17:32:42;17.10;98.40
1594;DHT22;790;47.000;16.084;2023-04-30T17:35:29;17.10;98.80
1594;DHT22;790;47.000;16.084;2023-04-30T17:38:04;17.10;99.00
1594;DHT22;790;47.000;16.084;2023-04-30T17:40:35;17.10;98.70
1594;DHT22;790;47.000;16.084;2023-04-30T17:43:06;16.90;99.80
1594;DHT22;790;47.000;16.084;2023-04-30T17:45:41;16.90;99.50
1594;DHT22;790;47.000;16.084;2023-04-30T17:48:25;16.80;99.40
1594;DHT22;790;47.000;16.084;2023-04-30T17:50:53;16.70;99.70
1594;DHT22;790;47.000;16.084;2023-04-30T17:53:34;16.70;99.60
1594;DHT22;790;47.000;16.084;2023-04-30T17:56:11;16.70;99.90
1594;DHT22;790;47.000;16.084;2023-04-30T17:58:39;16.60;99.90
1594;DHT22;790;47.000;16.084;2023-04-30T18:01:07;16.40;99.90
1594;DHT22;790;47.000;16.084;2023-04-30T18:03:36;16.20;99.90
1594;DHT22;790;47.000;16.084;2023-04-30T18:06:07;16.20;99.90
1594;DHT22;790;47.000;16.084;2023-04-30T18:08:40;16.00;99.90
1594;DHT22;790;47.000;16.084;2023-04-30T18:11:21;15.90;99.90
1594;DHT22;790;47.000;16.084;2023-04-30T18:13:51;15.80;99.90
1594;DHT22;790;47.000;16.084;2023-04-30T18:16:21;15.70;99.90
1594;DHT22;790;47.000;16.084;2023-04-30T18:18:57;15.50;99.90
1594;DHT22;790;47.000;16.084;2023-04-30T18:21:27;15.40;99.90
1594;DHT22;790;47.000;16.084;2023-04-30T18:23:55;15.20;99.90
1594;DHT22;790;47.000;16.084;2023-04-30T18:26:22;14.90;99.90
1594;DHT22;790;47.000;16.084;2023-04-30T18:28:50;14.80;99.90
1594;DHT22;790;47.000;16.084;2023-04-30T18:31:22;14.80;99.90
1594;DHT22;790;47.000;16.084;2023-04-30T18:33:59;14.90;99.90
1594;DHT22;790;47.000;16.084;2023-04-30T18:36:27;14.80;99.90
1594;DHT22;790;47.000;16.084;2023-04-30T18:38:57;14.80;99.90
1594;DHT22;790;47.000;16.084;2023-04-30T18:41:31;14.60;99.90
1594;DHT22;790;47.000;16.084;2023-04-30T18:44:31;14.50;99.90
1594;DHT22;790;47.000;16.084;2023-04-30T18:47:18;14.40;99.90
1594;DHT22;790;47.000;16.084;2023-04-30T18:49:48;14.30;99.90
1594;DHT22;790;47.000;16.084;2023-04-30T18:52:20;14.20;99.90
1594;DHT22;790;47.000;16.084;2023-04-30T18:54:48;14.20;99.90
1594;DHT22;790;47.000;16.084;2023-04-30T18:57:16;14.10;99.90
1594;DHT22;790;47.000;16.084;2023-04-30T18:59:44;14.00;99.90
1594;DHT22;790;47.000;16.084;2023-04-30T19:02:48;14.00;99.90
1594;DHT22;790;47.000;16.084;2023-04-30T19:05:21;13.90;99.90
1594;DHT22;790;47.000;16.084;2023-04-30T19:07:52;13.90;99.90
1594;DHT22;790;47.000;16.084;2023-04-30T19:10:22;13.80;99.90
1594;DHT22;790;47.000;16.084;2023-04-30T19:13:21;13.80;99.90
1594;DHT22;790;47.000;16.084;2023-04-30T19:15:49;13.70;99.90
1594;DHT22;790;47.000;16.084;2023-04-30T19:18:19;13.70;99.90
1594;DHT22;790;47.000;16.084;2023-04-30T19:21:18;13.70;99.90
1594;DHT22;790;47.000;16.084;2023-04-30T19:23:45;13.70;99.90
1594;DHT22;790;47.000;16.084;2023-04-30T19:26:26;13.60;99.90
1594;DHT22;790;47.000;16.084;2023-04-30T19:28:54;13.60;99.90
1594;DHT22;790;47.000;16.084;2023-04-30T19:31:22;13.50;99.90
1594;DHT22;790;47.000;16.084;2023-04-30T19:34:03;13.50;99.90
1594;DHT22;790;47.000;16.084;2023-04-30T19:36:48;13.50;99.90
1594;DHT22;790;47.000;16.084;2023-04-30T19:39:16;13.40;99.90
1594;DHT22;790;47.000;16.084;2023-04-30T19:41:58;13.30;99.90
1594;DHT22;790;47.000;16.084;2023-04-30T19:44:41;13.20;99.90
1594;DHT22;790;47.000;16.084;2023-04-30T19:47:09;13.20;99.90
1594;DHT22;790;47.000;16.084;2023-04-30T19:49:37;13.20;99.90
1594;DHT22;790;47.000;16.084;2023-04-30T19:52:07;13.10;99.90
1594;DHT22;790;47.000;16.084;2023-04-30T19:54:35;13.10;99.90
1594;DHT22;790;47.000;16.084;2023-04-30T19:57:02;13.10;99.90
1594;DHT22;790;47.000;16.084;2023-04-30T19:59:30;13.00;99.90
1594;DHT22;790;47.000;16.084;2023-04-30T20:02:01;12.90;99.90
1594;DHT22;790;47.000;16.084;2023-04-30T20:04:29;12.90;99.90
1594;DHT22;790;47.000;16.084;2023-04-30T20:06:56;12.80;99.90
1594;DHT22;790;47.000;16.084;2023-04-30T20:09:33;12.70;99.90
1594;DHT22;790;47.000;16.084;2023-04-30T20:12:02;12.70;99.90
1594;DHT22;790;47.000;16.084;2023-04-30T20:14:29;12.60;99.90
1594;DHT22;790;47.000;16.084;2023-04-30T20:16:57;12.50;99.90
1594;DHT22;790;47.000;16.084;2023-04-30T20:19:25;12.40;99.90
1594;DHT22;790;47.000;16.084;2023-04-30T20:21:52;12.50;99.90
1594;DHT22;790;47.000;16.084;2023-04-30T20:24:20;12.50;99.90
1594;DHT22;790;47.000;16.084;2023-04-30T20:26:49;12.50;99.90
1594;DHT22;790;47.000;16.084;2023-04-30T20:29:16;12.40;99.90
1594;DHT22;790;47.000;16.084;2023-04-30T20:31:45;12.30;99.90
1594;DHT22;790;47.000;16.084;2023-04-30T20:34:13;12.30;99.90
1594;DHT22;790;47.000;16.084;2023-04-30T20:36:40;12.30;99.90
1594;DHT22;790;47.000;16.084;2023-04-30T20:39:09;12.30;99.90
1594;DHT22;790;47.000;16.084;2023-04-30T20:41:36;12.20;99.90
1594;DHT22;790;47.000;16.084;2023-04-30T20:44:05;12.20;99.90
1594;DHT22;790;47.000;16.084;2023-04-30T20:46:32;12.10;99.90
1594;DHT22;790;47.000;16.084;2023-04-30T20:49:00;12.00;99.90
1594;DHT22;790;47.000;16.084;2023-04-30T20:51:29;12.00;99.90
1594;DHT22;790;47.000;16.084;2023-04-30T20:53:57;11.90;99.90
1594;DHT22;790;47.000;16.084;2023-04-30T20:56:24;11.90;99.90
1594;DHT22;790;47.000;16.084;2023-04-30T20:58:51;11.80;99.90
1594;DHT22;790;47.000;16.084;2023-04-30T21:01:21;11.80;99.90
1594;DHT22;790;47.000;16.084;2023-04-30T21:03:49;11.70;99.90
1594;DHT22;790;47.000;16.084;2023-04-30T21:06:16;11.70;99.90
1594;DHT22;790;47.000;16.084;2023-04-30T21:08:43;11.60;99.90
1594;DHT22;790;47.000;16.084;2023-04-30T21:11:11;11.60;99.90
1594;DHT22;790;47.000;16.084;2023-04-30T21:13:39;11.60;99.90
1594;DHT22;790;47.000;16.084;2023-04-30T21:16:07;11.50;99.90
1594;DHT22;790;47.000;16.084;2023-04-30T21:18:36;11.50;99.90
1594;DHT22;790;47.000;16.084;2023-04-30T21:21:03;11.50;99.90
1594;DHT22;790;47.000;16.084;2023-04-30T21:23:31;11.30;99.90
1594;DHT22;790;47.000;16.084;2023-04-30T21:25:58;11.20;99.90
1594;DHT22;790;47.000;16.084;2023-04-30T21:28:26;11.20;99.90
1594;DHT22;790;47.000;16.084;2023-04-30T21:30:54;11.10;99.90
1594;DHT22;790;47.000;16.084;2023-04-30T21:33:22;11.00;99.90
1594;DHT22;790;47.000;16.084;2023-04-30T21:35:52;11.00;99.90
1594;DHT22;790;47.000;16.084;2023-04-30T21:38:20;11.00;99.90
1594;DHT22;790;47.000;16.084;2023-04-30T21:40:51;11.00;99.90
1594;DHT22;790;47.000;16.084;2023-04-30T21:43:18;11.00;99.90
1594;DHT22;790;47.000;16.084;2023-04-30T21:45:46;10.90;99.90
1594;DHT22;790;47.000;16.084;2023-04-30T21:48:17;10.90;99.90
1594;DHT22;790;47.000;16.084;2023-04-30T21:50:44;10.90;99.90
1594;DHT22;790;47.000;16.084;2023-04-30T21:53:13;11.10;99.90
1594;DHT22;790;47.000;16.084;2023-04-30T21:55:41;11.10;99.90
1594;DHT22;790;47.000;16.084;2023-04-30T21:58:08;11.10;99.90
1594;DHT22;790;47.000;16.084;2023-04-30T22:00:35;11.00;99.90
1594;DHT22;790;47.000;16.084;2023-04-30T22:03:03;10.90;99.90
1594;DHT22;790;47.000;16.084;2023-04-30T22:05:30;10.90;99.90
1594;DHT22;790;47.000;16.084;2023-04-30T22:07:57;10.90;99.90
1594;DHT22;790;47.000;16.084;2023-04-30T22:10:26;10.80;99.90
1594;DHT22;790;47.000;16.084;2023-04-30T22:12:53;10.70;99.90
1594;DHT22;790;47.000;16.084;2023-04-30T22:15:21;10.60;99.90
1594;DHT22;790;47.000;16.084;2023-04-30T22:17:48;10.50;99.90
1594;DHT22;790;47.000;16.084;2023-04-30T22:20:16;10.50;99.90
1594;DHT22;790;47.000;16.084;2023-04-30T22:22:43;10.50;99.90
1594;DHT22;790;47.000;16.084;2023-04-30T22:25:11;10.60;99.90
1594;DHT22;790;47.000;16.084;2023-04-30T22:27:39;10.70;99.90
1594;DHT22;790;47.000;16.084;2023-04-30T22:30:07;10.70;99.90
1594;DHT22;790;47.000;16.084;2023-04-30T22:32:34;10.70;99.90
1594;DHT22;790;47.000;16.084;2023-04-30T22:35:02;10.60;99.90
1594;DHT22;790;47.000;16.084;2023-04-30T22:37:32;10.50;99.90
1594;DHT22;790;47.000;16.084;2023-04-30T22:40:03;10.40;99.90
1594;DHT22;790;47.000;16.084;2023-04-30T22:42:47;10.40;99.90
1594;DHT22;790;47.000;16.084;2023-04-30T22:45:18;10.30;99.90
1594;DHT22;790;47.000;16.084;2023-04-30T22:48:11;10.30;99.90
1594;DHT22;790;47.000;16.084;2023-04-30T22:50:38;10.30;99.90
1594;DHT22;790;47.000;16.084;2023-04-30T22:53:06;10.20;99.90
1594;DHT22;790;47.000;16.084;2023-04-30T22:55:33;10.10;99.90
1594;DHT22;790;47.000;16.084;2023-04-30T22:58:02;10.10;99.90
1594;DHT22;790;47.000;16.084;2023-04-30T23:00:29;10.10;99.90
1594;DHT22;790;47.000;16.084;2023-04-30T23:02:56;10.00;99.90
1594;DHT22;790;47.000;16.084;2023-04-30T23:05:24;9.90;99.90
1594;DHT22;790;47.000;16.084;2023-04-30T23:07:51;9.90;99.90
1594;DHT22;790;47.000;16.084;2023-04-30T23:10:18;9.80;99.90
1594;DHT22;790;47.000;16.084;2023-04-30T23:12:46;9.80;99.90
1594;DHT22;790;47.000;16.084;2023-04-30T23:15:15;9.80;99.90
1594;DHT22;790;47.000;16.084;2023-04-30T23:17:56;9.80;99.90
1594;DHT22;790;47.000;16.084;2023-04-30T23:20:24;9.70;99.90
1594;DHT22;790;47.000;16.084;2023-04-30T23:22:53;9.70;99.90
1594;DHT22;790;47.000;16.084;2023-04-30T23:25:20;9.70;99.90
1594;DHT22;790;47.000;16.084;2023-04-30T23:27:47;9.80;99.90
1594;DHT22;790;47.000;16.084;2023-04-30T23:30:17;9.80;99.90
1594;DHT22;790;47.000;16.084;2023-04-30T23:32:44;9.80;99.90
1594;DHT22;790;47.000;16.084;2023-04-30T23:35:12;9.80;99.90
1594;DHT22;790;47.000;16.084;2023-04-30T23:37:40;9.70;99.90
1594;DHT22;790;47.000;16.084;2023-04-30T23:40:08;9.70;99.90
1594;DHT22;790;47.000;16.084;2023-04-30T23:42:36;9.70;99.90
1594;DHT22;790;47.000;16.084;2023-04-30T23:45:03;9.60;99.90
1594;DHT22;790;47.000;16.084;2023-04-30T23:47:33;9.60;99.90
1594;DHT22;790;47.000;16.084;2023-04-30T23:50:01;9.60;99.90
1594;DHT22;790;47.000;16.084;2023-04-30T23:52:28;9.50;99.90
1594;DHT22;790;47.000;16.084;2023-04-30T23:54:56;9.40;99.90
1594;DHT22;790;47.000;16.084;2023-04-30T23:57:24;9.30;99.90
1594;DHT22;790;47.000;16.084;2023-04-30T23:59:52;9.30;99.90
